sensor_id;sensor_type;location;lat;lon;timestamp;temperature;humidity
1728;DHT22;861;48.808;9.006;2023-02-28T00:00:40;1.30;96.00
1728;DHT22;861;48.808;9.006;2023-02-28T00:03:07;1.20;96.10
1728;DHT22;861;48.808;9.006;2023-02-28T00:05:33;1.30;96.00
1728;DHT22;861;48.808;9.006;2023-02-28T00:08:00;1.30;96.00
1728;DHT22;861;48.808;9.006;2023-02-28T00:10:31;1.20;96.00
1728;DHT22;861;48.808;9.006;2023-02-28T00:13:04;1.30;96.10
1728;DHT22;861;48.808;9.006;2023-02-28T00:15:35;1.10;96.00
1728;DHT22;861;48.808;9.006;2023-02-28T00:18:04;1.00;96.30
1728;DHT22;861;48.808;9.006;2023-02-28T00:20:30;1.10;96.40
1728;DHT22;861;48.808;9.006;2023-02-28T00:22:56;1.10;96.40
1728;DHT22;861;48.808;9.006;2023-02-28T00:25:25;1.10;96.50
1728;DHT22;861;48.808;9.006;2023-02-28T00:27:52;1.10;96.50
1728;DHT22;861;48.808;9.006;2023-02-28T00:30:22;1.00;96.60
1728;DHT22;861;48.808;9.006;2023-02-28T00:32:52;0.90;96.80
1728;DHT22;861;48.808;9.006;2023-02-28T00:35:18;0.90;96.90
1728;DHT22;861;48.808;9.006;2023-02-28T00:37:45;0.70;97.20
1728;DHT22;861;48.808;9.006;2023-02-28T00:40:11;0.70;97.30
1728;DHT22;861;48.808;9.006;2023-02-28T00:42:38;0.80;97.60
1728;DHT22;861;48.808;9.006;2023-02-28T00:45:06;0.80;97.60
1728;DHT22;861;48.808;9.006;2023-02-28T00:47:34;0.80;97.60
1728;DHT22;861;48.808;9.006;2023-02-28T00:50:00;0.90;97.70
1728;DHT22;861;48.808;9.006;2023-02-28T00:52:27;0.80;97.70
1728;DHT22;861;48.808;9.006;2023-02-28T00:54:53;0.80;97.70
1728;DHT22;861;48.808;9.006;2023-02-28T00:57:20;0.80;98.00
1728;DHT22;861;48.808;9.006;2023-02-28T00:59:46;0.70;98.00
1728;DHT22;861;48.808;9.006;2023-02-28T01:02:12;0.80;98.10
1728;DHT22;861;48.808;9.006;2023-02-28T01:04:38;0.80;98.30
1728;DHT22;861;48.808;9.006;2023-02-28T01:07:05;0.70;98.40
1728;DHT22;861;48.808;9.006;2023-02-28T01:09:31;0.70;98.40
1728;DHT22;861;48.808;9.006;2023-02-28T01:11:57;0.80;98.50
1728;DHT22;861;48.808;9.006;2023-02-28T01:14:24;0.70;98.50
1728;DHT22;861;48.808;9.006;2023-02-28T01:16:50;0.80;98.70
1728;DHT22;861;48.808;9.006;2023-02-28T01:19:17;0.80;98.50
1728;DHT22;861;48.808;9.006;2023-02-28T01:21:43;0.80;98.70
1728;DHT22;861;48.808;9.006;2023-02-28T01:24:09;0.80;98.80
1728;DHT22;861;48.808;9.006;2023-02-28T01:26:36;0.60;99.00
1728;DHT22;861;48.808;9.006;2023-02-28T01:29:02;0.60;99.20
1728;DHT22;861;48.808;9.006;2023-02-28T01:31:29;0.70;99.10
1728;DHT22;861;48.808;9.006;2023-02-28T01:33:55;0.60;99.40
1728;DHT22;861;48.808;9.006;2023-02-28T01:36:24;0.50;99.60
1728;DHT22;861;48.808;9.006;2023-02-28T01:38:59;0.60;99.70
1728;DHT22;861;48.808;9.006;2023-02-28T01:41:31;0.60;99.60
1728;DHT22;861;48.808;9.006;2023-02-28T01:47:41;0.60;99.80
1728;DHT22;861;48.808;9.006;2023-02-28T01:50:27;0.60;99.90
1728;DHT22;861;48.808;9.006;2023-02-28T01:53:05;0.60;99.90
1728;DHT22;861;48.808;9.006;2023-02-28T01:55:47;0.50;99.90
1728;DHT22;861;48.808;9.006;2023-02-28T01:58:19;0.50;99.90
1728;DHT22;861;48.808;9.006;2023-02-28T02:00:46;0.50;99.90
1728;DHT22;861;48.808;9.006;2023-02-28T02:03:17;0.50;99.90
1728;DHT22;861;48.808;9.006;2023-02-28T02:05:46;0.50;99.90
1728;DHT22;861;48.808;9.006;2023-02-28T02:08:21;0.40;99.90
1728;DHT22;861;48.808;9.006;2023-02-28T02:11:00;0.40;99.90
1728;DHT22;861;48.808;9.006;2023-02-28T02:17:12;0.30;99.90
1728;DHT22;861;48.808;9.006;2023-02-28T02:20:15;0.50;99.90
1728;DHT22;861;48.808;9.006;2023-02-28T02:43:20;0.60;99.90
1728;DHT22;861;48.808;9.006;2023-02-28T02:46:08;0.50;99.90
1728;DHT22;861;48.808;9.006;2023-02-28T02:48:46;0.40;99.90
1728;DHT22;861;48.808;9.006;2023-02-28T02:51:22;0.60;99.90
1728;DHT22;861;48.808;9.006;2023-02-28T02:54:28;0.70;99.90
1728;DHT22;861;48.808;9.006;2023-02-28T03:00:29;0.60;99.90
1728;DHT22;861;48.808;9.006;2023-02-28T03:03:06;0.50;99.90
1728;DHT22;861;48.808;9.006;2023-02-28T03:05:48;0.70;99.90
1728;DHT22;861;48.808;9.006;2023-02-28T03:08:17;0.60;99.90
1728;DHT22;861;48.808;9.006;2023-02-28T03:10:48;0.60;99.90
1728;DHT22;861;48.808;9.006;2023-02-28T03:18:12;0.70;99.90
1728;DHT22;861;48.808;9.006;2023-02-28T03:21:18;0.70;99.90
1728;DHT22;861;48.808;9.006;2023-02-28T03:24:11;0.80;99.90
1728;DHT22;861;48.808;9.006;2023-02-28T03:27:01;0.70;99.90
1728;DHT22;861;48.808;9.006;2023-02-28T03:33:30;0.80;99.90
1728;DHT22;861;48.808;9.006;2023-02-28T03:36:17;0.80;99.90
1728;DHT22;861;48.808;9.006;2023-02-28T03:39:09;0.80;99.90
1728;DHT22;861;48.808;9.006;2023-02-28T03:42:08;0.80;99.90
1728;DHT22;861;48.808;9.006;2023-02-28T03:44:49;0.90;99.90
1728;DHT22;861;48.808;9.006;2023-02-28T03:47:29;0.90;99.90
1728;DHT22;861;48.808;9.006;2023-02-28T03:50:37;0.80;99.90
1728;DHT22;861;48.808;9.006;2023-02-28T03:53:31;0.80;99.90
1728;DHT22;861;48.808;9.006;2023-02-28T03:56:17;0.80;99.90
1728;DHT22;861;48.808;9.006;2023-02-28T03:59:16;0.70;99.90
1728;DHT22;861;48.808;9.006;2023-02-28T04:02:16;0.60;99.90
1728;DHT22;861;48.808;9.006;2023-02-28T04:04:44;0.50;99.90
1728;DHT22;861;48.808;9.006;2023-02-28T04:07:15;0.50;99.90
1728;DHT22;861;48.808;9.006;2023-02-28T04:09:41;0.60;99.90
1728;DHT22;861;48.808;9.006;2023-02-28T04:12:09;0.60;99.90
1728;DHT22;861;48.808;9.006;2023-02-28T04:14:35;0.60;99.90
1728;DHT22;861;48.808;9.006;2023-02-28T04:17:01;0.70;99.90
1728;DHT22;861;48.808;9.006;2023-02-28T04:19:28;0.80;99.90
1728;DHT22;861;48.808;9.006;2023-02-28T04:21:54;0.70;99.90
1728;DHT22;861;48.808;9.006;2023-02-28T04:24:27;0.60;99.90
1728;DHT22;861;48.808;9.006;2023-02-28T04:26:57;0.60;99.90
1728;DHT22;861;48.808;9.006;2023-02-28T04:29:28;0.50;99.90
1728;DHT22;861;48.808;9.006;2023-02-28T04:32:00;0.60;99.90
1728;DHT22;861;48.808;9.006;2023-02-28T04:34:31;0.50;99.90
1728;DHT22;861;48.808;9.006;2023-02-28T04:36:58;0.60;99.90
1728;DHT22;861;48.808;9.006;2023-02-28T04:39:26;0.50;99.90
1728;DHT22;861;48.808;9.006;2023-02-28T04:41:52;0.60;99.90
1728;DHT22;861;48.808;9.006;2023-02-28T04:44:18;0.60;99.90
1728;DHT22;861;48.808;9.006;2023-02-28T04:46:44;0.60;99.90
1728;DHT22;861;48.808;9.006;2023-02-28T04:49:12;0.60;99.90
1728;DHT22;861;48.808;9.006;2023-02-28T04:51:43;0.70;99.90
1728;DHT22;861;48.808;9.006;2023-02-28T04:54:09;0.70;99.90
1728;DHT22;861;48.808;9.006;2023-02-28T04:56:36;0.80;99.90
1728;DHT22;861;48.808;9.006;2023-02-28T04:59:02;0.70;99.90
1728;DHT22;861;48.808;9.006;2023-02-28T05:01:38;0.60;99.90
1728;DHT22;861;48.808;9.006;2023-02-28T05:04:14;0.60;99.90
1728;DHT22;861;48.808;9.006;2023-02-28T05:06:46;0.70;99.90
1728;DHT22;861;48.808;9.006;2023-02-28T05:09:12;0.80;99.90
1728;DHT22;861;48.808;9.006;2023-02-28T05:11:41;0.90;99.90
1728;DHT22;861;48.808;9.006;2023-02-28T05:14:21;0.60;99.90
1728;DHT22;861;48.808;9.006;2023-02-28T05:16:54;0.70;99.90
1728;DHT22;861;48.808;9.006;2023-02-28T05:19:26;0.60;99.90
1728;DHT22;861;48.808;9.006;2023-02-28T05:21:54;0.80;99.90
1728;DHT22;861;48.808;9.006;2023-02-28T05:24:21;0.80;99.90
1728;DHT22;861;48.808;9.006;2023-02-28T05:26:53;0.80;99.90
1728;DHT22;861;48.808;9.006;2023-02-28T05:29:21;0.50;99.90
1728;DHT22;861;48.808;9.006;2023-02-28T05:31:48;0.50;99.90
1728;DHT22;861;48.808;9.006;2023-02-28T05:34:14;0.40;99.90
1728;DHT22;861;48.808;9.006;2023-02-28T05:36:41;0.30;99.90
1728;DHT22;861;48.808;9.006;2023-02-28T05:39:11;0.40;99.90
1728;DHT22;861;48.808;9.006;2023-02-28T05:41:44;0.40;99.90
1728;DHT22;861;48.808;9.006;2023-02-28T05:44:11;0.50;99.90
1728;DHT22;861;48.808;9.006;2023-02-28T05:46:38;0.60;99.90
1728;DHT22;861;48.808;9.006;2023-02-28T05:49:04;0.70;99.90
1728;DHT22;861;48.808;9.006;2023-02-28T05:51:30;0.80;99.90
1728;DHT22;861;48.808;9.006;2023-02-28T05:54:02;0.80;99.90
1728;DHT22;861;48.808;9.006;2023-02-28T05:56:29;0.70;99.90
1728;DHT22;861;48.808;9.006;2023-02-28T05:58:55;0.80;99.90
1728;DHT22;861;48.808;9.006;2023-02-28T06:01:37;1.20;99.90
1728;DHT22;861;48.808;9.006;2023-02-28T06:04:17;0.70;99.90
1728;DHT22;861;48.808;9.006;2023-02-28T06:06:47;0.70;99.90
1728;DHT22;861;48.808;9.006;2023-02-28T06:09:18;0.80;99.90
1728;DHT22;861;48.808;9.006;2023-02-28T06:12:07;0.80;99.90
1728;DHT22;861;48.808;9.006;2023-02-28T06:15:27;0.80;99.90
1728;DHT22;861;48.808;9.006;2023-02-28T06:18:24;0.80;99.90
1728;DHT22;861;48.808;9.006;2023-02-28T06:24:43;0.90;99.90
1728;DHT22;861;48.808;9.006;2023-02-28T06:27:30;1.00;99.90
1728;DHT22;861;48.808;9.006;2023-02-28T06:30:08;0.80;99.90
1728;DHT22;861;48.808;9.006;2023-02-28T06:33:14;0.80;99.90
1728;DHT22;861;48.808;9.006;2023-02-28T06:36:21;0.80;99.90
1728;DHT22;861;48.808;9.006;2023-02-28T06:39:00;1.00;99.90
1728;DHT22;861;48.808;9.006;2023-02-28T06:42:04;0.90;99.90
1728;DHT22;861;48.808;9.006;2023-02-28T06:45:21;0.80;99.90
1728;DHT22;861;48.808;9.006;2023-02-28T06:48:23;0.90;99.90
1728;DHT22;861;48.808;9.006;2023-02-28T06:51:14;0.90;99.90
1728;DHT22;861;48.808;9.006;2023-02-28T06:53:46;0.50;99.90
1728;DHT22;861;48.808;9.006;2023-02-28T06:56:15;0.50;99.90
1728;DHT22;861;48.808;9.006;2023-02-28T06:58:48;0.60;99.90
1728;DHT22;861;48.808;9.006;2023-02-28T07:01:17;0.50;99.90
1728;DHT22;861;48.808;9.006;2023-02-28T07:03:46;0.60;99.90
1728;DHT22;861;48.808;9.006;2023-02-28T07:06:12;0.70;99.90
1728;DHT22;861;48.808;9.006;2023-02-28T07:08:38;0.80;99.90
1728;DHT22;861;48.808;9.006;2023-02-28T07:11:06;0.70;99.90
1728;DHT22;861;48.808;9.006;2023-02-28T07:13:35;0.90;99.90
1728;DHT22;861;48.808;9.006;2023-02-28T07:16:10;1.00;99.90
1728;DHT22;861;48.808;9.006;2023-02-28T07:18:38;0.90;99.90
1728;DHT22;861;48.808;9.006;2023-02-28T07:21:08;0.90;99.90
1728;DHT22;861;48.808;9.006;2023-02-28T07:23:37;0.90;99.90
1728;DHT22;861;48.808;9.006;2023-02-28T07:26:07;1.00;99.90
1728;DHT22;861;48.808;9.006;2023-02-28T07:28:46;1.00;99.90
1728;DHT22;861;48.808;9.006;2023-02-28T07:31:15;1.00;99.90
1728;DHT22;861;48.808;9.006;2023-02-28T07:33:44;1.00;99.90
1728;DHT22;861;48.808;9.006;2023-02-28T07:36:16;1.00;99.90
1728;DHT22;861;48.808;9.006;2023-02-28T07:38:47;1.00;99.90
1728;DHT22;861;48.808;9.006;2023-02-28T07:41:21;1.10;99.90
1728;DHT22;861;48.808;9.006;2023-02-28T07:43:52;1.10;99.90
1728;DHT22;861;48.808;9.006;2023-02-28T07:46:21;1.20;99.90
1728;DHT22;861;48.808;9.006;2023-02-28T07:48:50;1.20;99.90
1728;DHT22;861;48.808;9.006;2023-02-28T07:51:22;1.30;99.90
1728;DHT22;861;48.808;9.006;2023-02-28T07:53:48;1.30;99.90
1728;DHT22;861;48.808;9.006;2023-02-28T07:56:18;1.40;99.90
1728;DHT22;861;48.808;9.006;2023-02-28T07:58:44;1.30;99.90
1728;DHT22;861;48.808;9.006;2023-02-28T08:01:11;1.30;99.90
1728;DHT22;861;48.808;9.006;2023-02-28T08:03:39;1.40;99.90
1728;DHT22;861;48.808;9.006;2023-02-28T08:06:14;1.50;99.90
1728;DHT22;861;48.808;9.006;2023-02-28T08:08:50;1.30;99.90
1728;DHT22;861;48.808;9.006;2023-02-28T08:11:36;1.20;99.90
1728;DHT22;861;48.808;9.006;2023-02-28T08:14:22;1.40;99.90
1728;DHT22;861;48.808;9.006;2023-02-28T08:17:21;1.20;99.90
1728;DHT22;861;48.808;9.006;2023-02-28T08:20:10;1.10;99.90
1728;DHT22;861;48.808;9.006;2023-02-28T08:23:12;1.30;99.90
1728;DHT22;861;48.808;9.006;2023-02-28T08:25:56;1.30;99.90
1728;DHT22;861;48.808;9.006;2023-02-28T08:28:45;1.30;99.90
1728;DHT22;861;48.808;9.006;2023-02-28T08:31:31;1.30;99.90
1728;DHT22;861;48.808;9.006;2023-02-28T08:34:13;1.50;99.90
1728;DHT22;861;48.808;9.006;2023-02-28T08:36:44;1.60;99.90
1728;DHT22;861;48.808;9.006;2023-02-28T08:39:21;1.40;99.90
1728;DHT22;861;48.808;9.006;2023-02-28T08:41:52;1.60;99.90
1728;DHT22;861;48.808;9.006;2023-02-28T08:44:32;1.60;99.90
1728;DHT22;861;48.808;9.006;2023-02-28T08:47:07;1.50;99.90
1728;DHT22;861;48.808;9.006;2023-02-28T08:49:33;1.50;99.90
1728;DHT22;861;48.808;9.006;2023-02-28T08:52:14;1.50;99.90
1728;DHT22;861;48.808;9.006;2023-02-28T08:54:51;1.60;99.90
1728;DHT22;861;48.808;9.006;2023-02-28T08:57:26;1.70;99.90
1728;DHT22;861;48.808;9.006;2023-02-28T09:00:24;1.90;99.90
1728;DHT22;861;48.808;9.006;2023-02-28T09:06:27;1.60;99.90
1728;DHT22;861;48.808;9.006;2023-02-28T09:08:57;1.70;99.90
1728;DHT22;861;48.808;9.006;2023-02-28T09:11:25;1.70;99.90
1728;DHT22;861;48.808;9.006;2023-02-28T09:13:52;1.70;99.90
1728;DHT22;861;48.808;9.006;2023-02-28T09:16:19;1.70;99.90
1728;DHT22;861;48.808;9.006;2023-02-28T09:18:45;1.70;99.90
1728;DHT22;861;48.808;9.006;2023-02-28T09:21:16;1.80;99.90
1728;DHT22;861;48.808;9.006;2023-02-28T09:23:47;1.80;99.90
1728;DHT22;861;48.808;9.006;2023-02-28T09:26:19;1.80;99.90
1728;DHT22;861;48.808;9.006;2023-02-28T09:28:52;1.80;99.90
1728;DHT22;861;48.808;9.006;2023-02-28T09:31:27;2.00;99.90
1728;DHT22;861;48.808;9.006;2023-02-28T09:33:56;1.90;99.90
1728;DHT22;861;48.808;9.006;2023-02-28T09:36:27;1.80;99.90
1728;DHT22;861;48.808;9.006;2023-02-28T09:38:55;1.90;99.90
1728;DHT22;861;48.808;9.006;2023-02-28T09:41:27;2.10;99.90
1728;DHT22;861;48.808;9.006;2023-02-28T09:47:42;2.30;99.90
1728;DHT22;861;48.808;9.006;2023-02-28T09:53:04;2.40;99.90
1728;DHT22;861;48.808;9.006;2023-02-28T09:55:53;2.40;99.90
1728;DHT22;861;48.808;9.006;2023-02-28T10:04:51;2.40;99.90
1728;DHT22;861;48.808;9.006;2023-02-28T10:07:41;2.50;99.90
1728;DHT22;861;48.808;9.006;2023-02-28T10:10:45;2.50;99.90
1728;DHT22;861;48.808;9.006;2023-02-28T10:20:00;2.70;99.90
1728;DHT22;861;48.808;9.006;2023-02-28T10:23:02;2.60;99.90
1728;DHT22;861;48.808;9.006;2023-02-28T10:25:52;2.60;99.90
1728;DHT22;861;48.808;9.006;2023-02-28T10:28:26;2.60;99.90
1728;DHT22;861;48.808;9.006;2023-02-28T10:31:19;2.50;99.90
1728;DHT22;861;48.808;9.006;2023-02-28T10:33:47;2.50;99.90
1728;DHT22;861;48.808;9.006;2023-02-28T10:36:18;2.70;99.90
1728;DHT22;861;48.808;9.006;2023-02-28T10:38:47;2.80;99.90
1728;DHT22;861;48.808;9.006;2023-02-28T10:41:42;2.80;99.90
1728;DHT22;861;48.808;9.006;2023-02-28T10:44:23;3.00;99.90
1728;DHT22;861;48.808;9.006;2023-02-28T10:46:51;3.00;99.90
1728;DHT22;861;48.808;9.006;2023-02-28T10:49:31;3.00;99.90
1728;DHT22;861;48.808;9.006;2023-02-28T10:52:01;3.10;99.90
1728;DHT22;861;48.808;9.006;2023-02-28T10:54:34;3.40;99.90
1728;DHT22;861;48.808;9.006;2023-02-28T10:57:23;3.60;99.90
1728;DHT22;861;48.808;9.006;2023-02-28T11:00:32;3.70;99.90
1728;DHT22;861;48.808;9.006;2023-02-28T11:03:01;3.90;99.90
1728;DHT22;861;48.808;9.006;2023-02-28T11:06:13;3.90;99.90
1728;DHT22;861;48.808;9.006;2023-02-28T11:08:55;3.70;99.90
1728;DHT22;861;48.808;9.006;2023-02-28T11:11:29;3.70;99.90
1728;DHT22;861;48.808;9.006;2023-02-28T11:14:26;4.00;99.90
1728;DHT22;861;48.808;9.006;2023-02-28T11:17:13;4.50;99.90
1728;DHT22;861;48.808;9.006;2023-02-28T11:20:00;4.80;99.90
1728;DHT22;861;48.808;9.006;2023-02-28T11:22:39;4.80;99.90
1728;DHT22;861;48.808;9.006;2023-02-28T11:25:32;4.70;99.90
1728;DHT22;861;48.808;9.006;2023-02-28T11:28:23;4.90;99.90
1728;DHT22;861;48.808;9.006;2023-02-28T11:33:49;5.40;99.90
1728;DHT22;861;48.808;9.006;2023-02-28T11:36:24;5.50;99.70
1728;DHT22;861;48.808;9.006;2023-02-28T11:39:04;5.50;99.90
1728;DHT22;861;48.808;9.006;2023-02-28T11:45:38;5.20;99.90
1728;DHT22;861;48.808;9.006;2023-02-28T11:48:38;5.40;99.90
1728;DHT22;861;48.808;9.006;2023-02-28T12:01:36;6.50;98.80
1728;DHT22;861;48.808;9.006;2023-02-28T12:04:58;6.90;97.60
1728;DHT22;861;48.808;9.006;2023-02-28T12:08:20;6.80;97.60
1728;DHT22;861;48.808;9.006;2023-02-28T12:12:07;7.00;97.90
1728;DHT22;861;48.808;9.006;2023-02-28T12:15:03;7.30;97.00
1728;DHT22;861;48.808;9.006;2023-02-28T12:21:18;7.70;96.30
1728;DHT22;861;48.808;9.006;2023-02-28T12:27:20;7.50;96.10
1728;DHT22;861;48.808;9.006;2023-02-28T12:33:16;7.90;96.20
1728;DHT22;861;48.808;9.006;2023-02-28T12:35:57;8.10;95.90
1728;DHT22;861;48.808;9.006;2023-02-28T12:38:43;8.30;95.30
1728;DHT22;861;48.808;9.006;2023-02-28T12:44:58;8.00;94.60
1728;DHT22;861;48.808;9.006;2023-02-28T12:47:30;8.10;95.10
1728;DHT22;861;48.808;9.006;2023-02-28T12:50:04;8.30;94.60
1728;DHT22;861;48.808;9.006;2023-02-28T12:53:05;8.40;93.80
1728;DHT22;861;48.808;9.006;2023-02-28T12:59:14;8.80;93.10
1728;DHT22;861;48.808;9.006;2023-02-28T13:05:46;9.00;93.20
1728;DHT22;861;48.808;9.006;2023-02-28T13:09:11;9.40;93.40
1728;DHT22;861;48.808;9.006;2023-02-28T13:11:55;9.50;92.90
1728;DHT22;861;48.808;9.006;2023-02-28T13:19:45;10.00;91.50
1728;DHT22;861;48.808;9.006;2023-02-28T13:25:01;10.30;90.00
1728;DHT22;861;48.808;9.006;2023-02-28T13:27:40;10.30;90.20
1728;DHT22;861;48.808;9.006;2023-02-28T13:36:31;10.30;89.90
1728;DHT22;861;48.808;9.006;2023-02-28T13:40:06;10.50;88.50
1728;DHT22;861;48.808;9.006;2023-02-28T13:42:36;10.80;99.90
1728;DHT22;861;48.808;9.006;2023-02-28T13:45:25;10.90;87.50
1728;DHT22;861;48.808;9.006;2023-02-28T13:48:02;11.10;87.10
1728;DHT22;861;48.808;9.006;2023-02-28T13:50:42;11.10;95.10
1728;DHT22;861;48.808;9.006;2023-02-28T13:56:04;11.40;88.10
1728;DHT22;861;48.808;9.006;2023-02-28T13:59:23;11.60;85.60
1728;DHT22;861;48.808;9.006;2023-02-28T14:02:40;11.50;84.40
1728;DHT22;861;48.808;9.006;2023-02-28T14:05:44;11.20;84.40
1728;DHT22;861;48.808;9.006;2023-02-28T14:08:22;11.30;84.40
1728;DHT22;861;48.808;9.006;2023-02-28T14:11:04;11.20;85.60
1728;DHT22;861;48.808;9.006;2023-02-28T14:16:22;11.30;85.90
1728;DHT22;861;48.808;9.006;2023-02-28T14:19:05;11.50;84.90
1728;DHT22;861;48.808;9.006;2023-02-28T14:36:13;10.80;82.00
1728;DHT22;861;48.808;9.006;2023-02-28T14:39:06;10.80;80.70
1728;DHT22;861;48.808;9.006;2023-02-28T14:41:46;10.90;83.10
1728;DHT22;861;48.808;9.006;2023-02-28T14:44:27;11.10;82.90
1728;DHT22;861;48.808;9.006;2023-02-28T14:46:58;11.00;81.20
1728;DHT22;861;48.808;9.006;2023-02-28T14:49:42;10.80;81.90
1728;DHT22;861;48.808;9.006;2023-02-28T14:52:32;11.00;82.90
1728;DHT22;861;48.808;9.006;2023-02-28T14:55:10;11.00;80.70
1728;DHT22;861;48.808;9.006;2023-02-28T14:57:56;10.90;80.30
1728;DHT22;861;48.808;9.006;2023-02-28T15:00:36;10.80;80.40
1728;DHT22;861;48.808;9.006;2023-02-28T15:03:27;10.80;80.80
1728;DHT22;861;48.808;9.006;2023-02-28T15:06:17;10.70;81.20
1728;DHT22;861;48.808;9.006;2023-02-28T15:08:45;10.80;82.30
1728;DHT22;861;48.808;9.006;2023-02-28T15:11:18;10.80;81.10
1728;DHT22;861;48.808;9.006;2023-02-28T15:13:57;10.90;81.70
1728;DHT22;861;48.808;9.006;2023-02-28T15:16:36;10.90;82.90
1728;DHT22;861;48.808;9.006;2023-02-28T15:19:30;11.00;79.90
1728;DHT22;861;48.808;9.006;2023-02-28T15:22:18;10.90;80.90
1728;DHT22;861;48.808;9.006;2023-02-28T15:24:57;10.90;80.80
1728;DHT22;861;48.808;9.006;2023-02-28T15:27:32;10.60;81.50
1728;DHT22;861;48.808;9.006;2023-02-28T15:30:20;10.50;80.10
1728;DHT22;861;48.808;9.006;2023-02-28T15:35:45;10.30;81.00
1728;DHT22;861;48.808;9.006;2023-02-28T15:40:58;10.10;81.50
1728;DHT22;861;48.808;9.006;2023-02-28T15:46:07;10.00;82.60
1728;DHT22;861;48.808;9.006;2023-02-28T15:48:54;10.00;81.70
1728;DHT22;861;48.808;9.006;2023-02-28T15:51:34;9.80;84.80
1728;DHT22;861;48.808;9.006;2023-02-28T15:54:16;9.90;84.40
1728;DHT22;861;48.808;9.006;2023-02-28T15:56:56;9.90;84.60
1728;DHT22;861;48.808;9.006;2023-02-28T15:59:32;9.90;84.20
1728;DHT22;861;48.808;9.006;2023-02-28T16:02:17;9.90;85.10
1728;DHT22;861;48.808;9.006;2023-02-28T16:05:22;9.90;84.70
1728;DHT22;861;48.808;9.006;2023-02-28T16:08:17;9.80;84.60
1728;DHT22;861;48.808;9.006;2023-02-28T16:10:44;9.70;86.10
1728;DHT22;861;48.808;9.006;2023-02-28T16:13:12;9.50;84.30
1728;DHT22;861;48.808;9.006;2023-02-28T16:15:43;9.40;85.60
1728;DHT22;861;48.808;9.006;2023-02-28T16:18:13;9.30;86.00
1728;DHT22;861;48.808;9.006;2023-02-28T16:20:40;9.10;86.50
1728;DHT22;861;48.808;9.006;2023-02-28T16:23:07;9.10;85.90
1728;DHT22;861;48.808;9.006;2023-02-28T16:25:38;9.10;86.00
1728;DHT22;861;48.808;9.006;2023-02-28T16:28:25;8.80;86.80
1728;DHT22;861;48.808;9.006;2023-02-28T16:31:07;8.80;87.30
1728;DHT22;861;48.808;9.006;2023-02-28T16:33:34;8.70;87.90
1728;DHT22;861;48.808;9.006;2023-02-28T16:36:01;8.60;87.50
1728;DHT22;861;48.808;9.006;2023-02-28T16:38:28;8.50;88.30
1728;DHT22;861;48.808;9.006;2023-02-28T16:40:59;8.60;88.80
1728;DHT22;861;48.808;9.006;2023-02-28T16:43:28;8.60;89.50
1728;DHT22;861;48.808;9.006;2023-02-28T16:45:57;8.50;89.10
1728;DHT22;861;48.808;9.006;2023-02-28T16:48:25;8.50;89.80
1728;DHT22;861;48.808;9.006;2023-02-28T16:50:51;8.50;90.00
1728;DHT22;861;48.808;9.006;2023-02-28T16:53:46;8.50;89.10
1728;DHT22;861;48.808;9.006;2023-02-28T16:56:23;8.20;89.70
1728;DHT22;861;48.808;9.006;2023-02-28T16:58:57;8.20;90.40
1728;DHT22;861;48.808;9.006;2023-02-28T17:01:27;8.10;90.30
1728;DHT22;861;48.808;9.006;2023-02-28T17:03:55;8.00;90.40
1728;DHT22;861;48.808;9.006;2023-02-28T17:06:28;7.90;90.50
1728;DHT22;861;48.808;9.006;2023-02-28T17:08:57;7.80;90.60
1728;DHT22;861;48.808;9.006;2023-02-28T17:11:25;7.60;90.90
1728;DHT22;861;48.808;9.006;2023-02-28T17:13:52;7.40;91.10
1728;DHT22;861;48.808;9.006;2023-02-28T17:16:36;7.30;91.30
1728;DHT22;861;48.808;9.006;2023-02-28T17:19:14;7.20;91.50
1728;DHT22;861;48.808;9.006;2023-02-28T17:21:43;7.00;91.50
1728;DHT22;861;48.808;9.006;2023-02-28T17:24:11;7.00;91.80
1728;DHT22;861;48.808;9.006;2023-02-28T17:26:42;6.90;91.80
1728;DHT22;861;48.808;9.006;2023-02-28T17:29:21;6.60;92.10
1728;DHT22;861;48.808;9.006;2023-02-28T17:31:48;6.50;92.20
1728;DHT22;861;48.808;9.006;2023-02-28T17:34:14;6.40;92.40
1728;DHT22;861;48.808;9.006;2023-02-28T17:36:45;6.30;92.50
1728;DHT22;861;48.808;9.006;2023-02-28T17:39:16;6.30;92.70
1728;DHT22;861;48.808;9.006;2023-02-28T17:41:54;6.20;92.70
1728;DHT22;861;48.808;9.006;2023-02-28T17:44:23;6.20;92.80
1728;DHT22;861;48.808;9.006;2023-02-28T17:46:52;6.10;93.00
1728;DHT22;861;48.808;9.006;2023-02-28T17:49:21;6.10;93.10
1728;DHT22;861;48.808;9.006;2023-02-28T17:51:48;6.10;93.40
1728;DHT22;861;48.808;9.006;2023-02-28T17:54:16;5.90;93.20
1728;DHT22;861;48.808;9.006;2023-02-28T17:56:42;5.90;93.50
1728;DHT22;861;48.808;9.006;2023-02-28T17:59:11;5.70;93.80
1728;DHT22;861;48.808;9.006;2023-02-28T18:01:38;5.70;93.70
1728;DHT22;861;48.808;9.006;2023-02-28T18:04:04;5.60;93.90
1728;DHT22;861;48.808;9.006;2023-02-28T18:06:37;5.70;93.80
1728;DHT22;861;48.808;9.006;2023-02-28T18:09:22;5.70;93.80
1728;DHT22;861;48.808;9.006;2023-02-28T18:11:50;5.60;93.80
1728;DHT22;861;48.808;9.006;2023-02-28T18:14:23;5.60;94.10
1728;DHT22;861;48.808;9.006;2023-02-28T18:16:53;5.60;94.10
1728;DHT22;861;48.808;9.006;2023-02-28T18:19:21;5.50;94.10
1728;DHT22;861;48.808;9.006;2023-02-28T18:21:52;5.40;94.20
1728;DHT22;861;48.808;9.006;2023-02-28T18:24:21;5.40;94.20
1728;DHT22;861;48.808;9.006;2023-02-28T18:26:49;5.50;94.20
1728;DHT22;861;48.808;9.006;2023-02-28T18:29:24;5.50;94.10
1728;DHT22;861;48.808;9.006;2023-02-28T18:31:55;5.50;94.10
1728;DHT22;861;48.808;9.006;2023-02-28T18:34:23;5.40;94.20
1728;DHT22;861;48.808;9.006;2023-02-28T18:36:52;5.30;94.60
1728;DHT22;861;48.808;9.006;2023-02-28T18:39:19;5.30;94.60
1728;DHT22;861;48.808;9.006;2023-02-28T18:41:45;5.30;94.70
1728;DHT22;861;48.808;9.006;2023-02-28T18:44:12;5.30;94.80
1728;DHT22;861;48.808;9.006;2023-02-28T18:46:39;5.20;94.90
1728;DHT22;861;48.808;9.006;2023-02-28T18:53:45;5.20;95.00
1728;DHT22;861;48.808;9.006;2023-02-28T18:56:15;5.20;95.00
1728;DHT22;861;48.808;9.006;2023-02-28T18:58:45;5.10;94.80
1728;DHT22;861;48.808;9.006;2023-02-28T19:01:26;5.00;94.80
1728;DHT22;861;48.808;9.006;2023-02-28T19:04:00;5.10;94.90
1728;DHT22;861;48.808;9.006;2023-02-28T19:06:31;4.90;95.00
1728;DHT22;861;48.808;9.006;2023-02-28T19:09:00;4.90;95.00
1728;DHT22;861;48.808;9.006;2023-02-28T19:11:28;5.00;95.10
1728;DHT22;861;48.808;9.006;2023-02-28T19:13:55;5.00;95.00
1728;DHT22;861;48.808;9.006;2023-02-28T19:16:22;4.90;95.20
1728;DHT22;861;48.808;9.006;2023-02-28T19:18:50;4.90;95.10
1728;DHT22;861;48.808;9.006;2023-02-28T19:21:19;4.80;95.00
1728;DHT22;861;48.808;9.006;2023-02-28T19:23:48;4.70;95.10
1728;DHT22;861;48.808;9.006;2023-02-28T19:26:25;4.60;95.50
1728;DHT22;861;48.808;9.006;2023-02-28T19:28:51;4.50;95.70
1728;DHT22;861;48.808;9.006;2023-02-28T19:31:25;4.50;95.50
1728;DHT22;861;48.808;9.006;2023-02-28T19:33:53;4.60;95.60
1728;DHT22;861;48.808;9.006;2023-02-28T19:36:20;4.50;95.70
1728;DHT22;861;48.808;9.006;2023-02-28T19:38:48;4.60;95.80
1728;DHT22;861;48.808;9.006;2023-02-28T19:41:17;4.60;95.70
1728;DHT22;861;48.808;9.006;2023-02-28T19:43:45;4.70;95.70
1728;DHT22;861;48.808;9.006;2023-02-28T19:46:13;4.70;95.70
1728;DHT22;861;48.808;9.006;2023-02-28T19:48:40;4.60;95.70
1728;DHT22;861;48.808;9.006;2023-02-28T19:51:12;4.60;95.90
1728;DHT22;861;48.808;9.006;2023-02-28T19:53:41;4.60;95.90
1728;DHT22;861;48.808;9.006;2023-02-28T19:56:09;4.50;96.20
1728;DHT22;861;48.808;9.006;2023-02-28T19:58:36;4.50;96.10
1728;DHT22;861;48.808;9.006;2023-02-28T20:01:11;4.50;96.20
1728;DHT22;861;48.808;9.006;2023-02-28T20:03:41;4.50;96.20